sensor_id;sensor_type;location;lat;lon;timestamp;temperature;humidity
34985;DHT22;21190;58.750;17.004;2024-02-21T00:00:00;1.80;99.90
34985;DHT22;21190;58.750;17.004;2024-02-21T00:02:27;1.90;99.90
34985;DHT22;21190;58.750;17.004;2024-02-21T00:04:54;1.90;99.90
34985;DHT22;21190;58.750;17.004;2024-02-21T00:07:22;1.90;99.90
34985;DHT22;21190;58.750;17.004;2024-02-21T00:09:49;1.90;99.90
34985;DHT22;21190;58.750;17.004;2024-02-21T00:12:16;1.90;99.90
34985;DHT22;21190;58.750;17.004;2024-02-21T00:14:43;1.90;99.90
34985;DHT22;21190;58.750;17.004;2024-02-21T00:17:11;1.90;99.90
34985;DHT22;21190;58.750;17.004;2024-02-21T00:19:38;1.90;99.90
34985;DHT22;21190;58.750;17.004;2024-02-21T00:22:05;1.80;99.90
34985;DHT22;21190;58.750;17.004;2024-02-21T00:24:32;1.80;99.90
34985;DHT22;21190;58.750;17.004;2024-02-21T00:26:59;1.90;99.90
34985;DHT22;21190;58.750;17.004;2024-02-21T00:29:26;1.90;99.90
34985;DHT22;21190;58.750;17.004;2024-02-21T00:31:54;1.90;99.90
34985;DHT22;21190;58.750;17.004;2024-02-21T00:34:21;1.90;99.90
34985;DHT22;21190;58.750;17.004;2024-02-21T00:36:49;1.90;99.90
34985;DHT22;21190;58.750;17.004;2024-02-21T00:39:17;1.90;99.90
34985;DHT22;21190;58.750;17.004;2024-02-21T00:41:44;1.90;99.90
34985;DHT22;21190;58.750;17.004;2024-02-21T00:44:11;1.90;99.90
34985;DHT22;21190;58.750;17.004;2024-02-21T00:46:38;1.90;99.90
34985;DHT22;21190;58.750;17.004;2024-02-21T00:49:05;1.90;99.90
34985;DHT22;21190;58.750;17.004;2024-02-21T00:51:33;1.80;99.90
34985;DHT22;21190;58.750;17.004;2024-02-21T00:54:00;1.80;99.90
34985;DHT22;21190;58.750;17.004;2024-02-21T00:56:28;1.70;99.90
34985;DHT22;21190;58.750;17.004;2024-02-21T00:58:56;1.80;99.90
34985;DHT22;21190;58.750;17.004;2024-02-21T01:01:24;1.70;99.90
34985;DHT22;21190;58.750;17.004;2024-02-21T01:03:52;1.70;99.90
34985;DHT22;21190;58.750;17.004;2024-02-21T01:06:20;1.80;99.90
34985;DHT22;21190;58.750;17.004;2024-02-21T01:08:48;1.80;99.90
34985;DHT22;21190;58.750;17.004;2024-02-21T01:11:15;1.80;99.90
34985;DHT22;21190;58.750;17.004;2024-02-21T01:13:43;1.90;99.90
34985;DHT22;21190;58.750;17.004;2024-02-21T01:16:10;1.80;99.90
34985;DHT22;21190;58.750;17.004;2024-02-21T01:18:38;1.90;99.90
34985;DHT22;21190;58.750;17.004;2024-02-21T01:21:09;1.90;99.90
34985;DHT22;21190;58.750;17.004;2024-02-21T01:23:37;1.90;99.90
34985;DHT22;21190;58.750;17.004;2024-02-21T01:26:04;1.90;99.90
34985;DHT22;21190;58.750;17.004;2024-02-21T01:28:31;1.90;99.90
34985;DHT22;21190;58.750;17.004;2024-02-21T01:30:59;1.90;99.90
34985;DHT22;21190;58.750;17.004;2024-02-21T01:33:26;2.00;99.90
34985;DHT22;21190;58.750;17.004;2024-02-21T01:35:53;2.00;99.90
34985;DHT22;21190;58.750;17.004;2024-02-21T01:38:20;2.00;99.90
34985;DHT22;21190;58.750;17.004;2024-02-21T01:40:47;1.90;99.90
34985;DHT22;21190;58.750;17.004;2024-02-21T01:43:19;1.90;99.90
34985;DHT22;21190;58.750;17.004;2024-02-21T01:45:50;2.00;99.90
34985;DHT22;21190;58.750;17.004;2024-02-21T01:48:18;2.00;99.90
34985;DHT22;21190;58.750;17.004;2024-02-21T01:50:54;1.90;99.90
34985;DHT22;21190;58.750;17.004;2024-02-21T01:53:24;1.90;99.90
34985;DHT22;21190;58.750;17.004;2024-02-21T01:55:52;1.90;99.90
34985;DHT22;21190;58.750;17.004;2024-02-21T01:58:21;2.00;99.90
34985;DHT22;21190;58.750;17.004;2024-02-21T02:00:48;2.00;99.90
34985;DHT22;21190;58.750;17.004;2024-02-21T02:03:17;2.00;99.90
34985;DHT22;21190;58.750;17.004;2024-02-21T02:05:48;2.10;99.90
34985;DHT22;21190;58.750;17.004;2024-02-21T02:08:24;2.10;99.90
34985;DHT22;21190;58.750;17.004;2024-02-21T02:10:51;2.20;99.90
34985;DHT22;21190;58.750;17.004;2024-02-21T02:13:19;2.20;99.90
34985;DHT22;21190;58.750;17.004;2024-02-21T02:15:49;2.20;99.90
34985;DHT22;21190;58.750;17.004;2024-02-21T02:18:18;2.20;99.90
34985;DHT22;21190;58.750;17.004;2024-02-21T02:20:46;2.20;99.90
34985;DHT22;21190;58.750;17.004;2024-02-21T02:23:29;2.20;99.90
34985;DHT22;21190;58.750;17.004;2024-02-21T02:25:56;2.20;99.90
34985;DHT22;21190;58.750;17.004;2024-02-21T02:28:24;2.30;99.90
34985;DHT22;21190;58.750;17.004;2024-02-21T02:30:51;2.30;99.90
34985;DHT22;21190;58.750;17.004;2024-02-21T02:33:18;2.30;99.90
34985;DHT22;21190;58.750;17.004;2024-02-21T02:35:46;2.30;99.90
34985;DHT22;21190;58.750;17.004;2024-02-21T02:38:13;2.30;99.90
34985;DHT22;21190;58.750;17.004;2024-02-21T02:40:41;2.30;99.90
34985;DHT22;21190;58.750;17.004;2024-02-21T02:43:09;2.40;99.90
34985;DHT22;21190;58.750;17.004;2024-02-21T02:45:36;2.40;99.90
34985;DHT22;21190;58.750;17.004;2024-02-21T02:48:03;2.40;99.90
34985;DHT22;21190;58.750;17.004;2024-02-21T02:50:31;2.30;99.90
34985;DHT22;21190;58.750;17.004;2024-02-21T02:52:58;2.40;99.90
34985;DHT22;21190;58.750;17.004;2024-02-21T02:55:26;2.40;99.90
34985;DHT22;21190;58.750;17.004;2024-02-21T02:57:54;2.40;99.90
34985;DHT22;21190;58.750;17.004;2024-02-21T03:00:21;2.30;99.90
34985;DHT22;21190;58.750;17.004;2024-02-21T03:02:49;2.30;99.90
34985;DHT22;21190;58.750;17.004;2024-02-21T03:05:19;2.30;99.90
34985;DHT22;21190;58.750;17.004;2024-02-21T03:07:47;2.30;99.90
34985;DHT22;21190;58.750;17.004;2024-02-21T03:10:14;2.30;99.90
34985;DHT22;21190;58.750;17.004;2024-02-21T03:12:44;2.30;99.90
34985;DHT22;21190;58.750;17.004;2024-02-21T03:15:14;2.20;99.90
34985;DHT22;21190;58.750;17.004;2024-02-21T03:17:42;2.30;99.90
34985;DHT22;21190;58.750;17.004;2024-02-21T03:20:09;2.30;99.90
34985;DHT22;21190;58.750;17.004;2024-02-21T03:22:39;2.30;99.90
34985;DHT22;21190;58.750;17.004;2024-02-21T03:25:08;2.30;99.90
34985;DHT22;21190;58.750;17.004;2024-02-21T03:27:36;2.30;99.90
34985;DHT22;21190;58.750;17.004;2024-02-21T03:30:03;2.30;99.90
34985;DHT22;21190;58.750;17.004;2024-02-21T03:32:31;2.30;99.90
34985;DHT22;21190;58.750;17.004;2024-02-21T03:34:59;2.30;99.90
34985;DHT22;21190;58.750;17.004;2024-02-21T03:37:26;2.30;99.90
34985;DHT22;21190;58.750;17.004;2024-02-21T03:39:53;2.30;99.90
34985;DHT22;21190;58.750;17.004;2024-02-21T03:42:20;2.30;99.90
34985;DHT22;21190;58.750;17.004;2024-02-21T03:44:47;2.30;99.90
34985;DHT22;21190;58.750;17.004;2024-02-21T03:47:14;2.30;99.90
34985;DHT22;21190;58.750;17.004;2024-02-21T03:49:42;2.30;99.90
34985;DHT22;21190;58.750;17.004;2024-02-21T03:52:09;2.40;99.90
34985;DHT22;21190;58.750;17.004;2024-02-21T03:54:37;2.40;99.90
34985;DHT22;21190;58.750;17.004;2024-02-21T03:57:05;2.40;99.90
34985;DHT22;21190;58.750;17.004;2024-02-21T03:59:33;2.30;99.90
34985;DHT22;21190;58.750;17.004;2024-02-21T04:02:00;2.30;99.90
34985;DHT22;21190;58.750;17.004;2024-02-21T04:04:28;2.30;99.90
34985;DHT22;21190;58.750;17.004;2024-02-21T04:06:55;2.40;99.90
34985;DHT22;21190;58.750;17.004;2024-02-21T04:09:22;2.40;99.90
34985;DHT22;21190;58.750;17.004;2024-02-21T04:11:49;2.40;99.90
34985;DHT22;21190;58.750;17.004;2024-02-21T04:14:16;2.40;99.90
34985;DHT22;21190;58.750;17.004;2024-02-21T04:16:47;2.40;99.90
34985;DHT22;21190;58.750;17.004;2024-02-21T04:19:14;2.50;99.90
34985;DHT22;21190;58.750;17.004;2024-02-21T04:21:41;2.40;99.90
34985;DHT22;21190;58.750;17.004;2024-02-21T04:24:08;2.40;99.90
34985;DHT22;21190;58.750;17.004;2024-02-21T04:26:35;2.50;99.90
34985;DHT22;21190;58.750;17.004;2024-02-21T04:29:03;2.50;99.90
34985;DHT22;21190;58.750;17.004;2024-02-21T04:31:32;2.50;99.90
34985;DHT22;21190;58.750;17.004;2024-02-21T04:34:00;2.50;99.90
34985;DHT22;21190;58.750;17.004;2024-02-21T04:36:27;2.50;99.90
34985;DHT22;21190;58.750;17.004;2024-02-21T04:38:54;2.50;99.90
34985;DHT22;21190;58.750;17.004;2024-02-21T04:41:21;2.60;99.90
34985;DHT22;21190;58.750;17.004;2024-02-21T04:43:48;2.60;99.90
34985;DHT22;21190;58.750;17.004;2024-02-21T04:46:16;2.60;99.90
34985;DHT22;21190;58.750;17.004;2024-02-21T04:48:43;2.60;99.90
34985;DHT22;21190;58.750;17.004;2024-02-21T04:51:11;2.60;99.90
34985;DHT22;21190;58.750;17.004;2024-02-21T04:53:39;2.60;99.90
34985;DHT22;21190;58.750;17.004;2024-02-21T04:56:06;2.60;99.90
34985;DHT22;21190;58.750;17.004;2024-02-21T04:58:37;2.60;99.90
34985;DHT22;21190;58.750;17.004;2024-02-21T05:01:04;2.60;99.90
34985;DHT22;21190;58.750;17.004;2024-02-21T05:03:31;2.60;99.90
34985;DHT22;21190;58.750;17.004;2024-02-21T05:05:59;2.60;99.90
34985;DHT22;21190;58.750;17.004;2024-02-21T05:08:26;2.60;99.90
34985;DHT22;21190;58.750;17.004;2024-02-21T05:10:54;2.70;99.90
34985;DHT22;21190;58.750;17.004;2024-02-21T05:13:21;2.70;99.90
34985;DHT22;21190;58.750;17.004;2024-02-21T05:15:48;2.70;99.90
34985;DHT22;21190;58.750;17.004;2024-02-21T05:18:15;2.70;99.90
34985;DHT22;21190;58.750;17.004;2024-02-21T05:20:43;2.70;99.90
34985;DHT22;21190;58.750;17.004;2024-02-21T05:23:10;2.70;99.90
34985;DHT22;21190;58.750;17.004;2024-02-21T05:25:37;2.70;99.90
34985;DHT22;21190;58.750;17.004;2024-02-21T05:28:05;2.70;99.90
34985;DHT22;21190;58.750;17.004;2024-02-21T05:30:33;2.80;99.90
34985;DHT22;21190;58.750;17.004;2024-02-21T05:33:06;2.80;99.90
34985;DHT22;21190;58.750;17.004;2024-02-21T05:35:34;2.90;99.90
34985;DHT22;21190;58.750;17.004;2024-02-21T05:38:02;2.90;99.90
34985;DHT22;21190;58.750;17.004;2024-02-21T05:40:33;2.90;99.90
34985;DHT22;21190;58.750;17.004;2024-02-21T05:43:00;3.00;99.90
34985;DHT22;21190;58.750;17.004;2024-02-21T05:45:27;3.00;99.90
34985;DHT22;21190;58.750;17.004;2024-02-21T05:47:54;3.00;99.90
34985;DHT22;21190;58.750;17.004;2024-02-21T05:50:21;3.10;99.90
34985;DHT22;21190;58.750;17.004;2024-02-21T05:52:56;3.10;99.90
34985;DHT22;21190;58.750;17.004;2024-02-21T05:55:23;3.10;99.90
34985;DHT22;21190;58.750;17.004;2024-02-21T05:57:53;3.10;99.90
34985;DHT22;21190;58.750;17.004;2024-02-21T06:00:21;3.20;99.90
34985;DHT22;21190;58.750;17.004;2024-02-21T06:02:48;3.30;99.90
34985;DHT22;21190;58.750;17.004;2024-02-21T06:05:15;3.30;99.90
34985;DHT22;21190;58.750;17.004;2024-02-21T06:07:42;3.30;99.90
34985;DHT22;21190;58.750;17.004;2024-02-21T06:10:10;3.40;99.90
34985;DHT22;21190;58.750;17.004;2024-02-21T06:12:37;3.40;99.90
34985;DHT22;21190;58.750;17.004;2024-02-21T06:15:04;3.50;99.90
34985;DHT22;21190;58.750;17.004;2024-02-21T06:17:31;3.50;99.90
34985;DHT22;21190;58.750;17.004;2024-02-21T06:19:58;3.50;99.90
34985;DHT22;21190;58.750;17.004;2024-02-21T06:22:26;3.60;99.90
34985;DHT22;21190;58.750;17.004;2024-02-21T06:24:53;3.60;99.90
34985;DHT22;21190;58.750;17.004;2024-02-21T06:27:21;3.60;99.90
34985;DHT22;21190;58.750;17.004;2024-02-21T06:29:48;3.60;99.90
34985;DHT22;21190;58.750;17.004;2024-02-21T06:32:15;3.60;99.90
34985;DHT22;21190;58.750;17.004;2024-02-21T06:34:42;3.70;99.90
34985;DHT22;21190;58.750;17.004;2024-02-21T06:37:09;3.70;99.90
34985;DHT22;21190;58.750;17.004;2024-02-21T06:39:37;3.80;99.90
34985;DHT22;21190;58.750;17.004;2024-02-21T06:42:04;3.80;99.90
34985;DHT22;21190;58.750;17.004;2024-02-21T06:44:31;3.80;99.90
34985;DHT22;21190;58.750;17.004;2024-02-21T06:47:02;3.90;99.90
34985;DHT22;21190;58.750;17.004;2024-02-21T06:49:29;3.90;99.90
34985;DHT22;21190;58.750;17.004;2024-02-21T06:51:56;3.90;99.90
34985;DHT22;21190;58.750;17.004;2024-02-21T06:54:23;3.90;99.90
34985;DHT22;21190;58.750;17.004;2024-02-21T06:56:50;3.90;99.90
34985;DHT22;21190;58.750;17.004;2024-02-21T06:59:17;3.90;99.90
34985;DHT22;21190;58.750;17.004;2024-02-21T07:01:47;3.90;99.90
34985;DHT22;21190;58.750;17.004;2024-02-21T07:04:15;3.90;99.90
34985;DHT22;21190;58.750;17.004;2024-02-21T07:06:42;4.00;99.90
34985;DHT22;21190;58.750;17.004;2024-02-21T07:09:10;4.00;99.90
34985;DHT22;21190;58.750;17.004;2024-02-21T07:11:37;4.20;99.90
34985;DHT22;21190;58.750;17.004;2024-02-21T07:14:04;4.30;99.90
34985;DHT22;21190;58.750;17.004;2024-02-21T07:16:31;4.30;99.90
34985;DHT22;21190;58.750;17.004;2024-02-21T07:19:00;4.30;99.90
34985;DHT22;21190;58.750;17.004;2024-02-21T07:21:27;4.20;99.90
34985;DHT22;21190;58.750;17.004;2024-02-21T07:23:54;4.20;99.90
34985;DHT22;21190;58.750;17.004;2024-02-21T07:26:21;4.20;99.90
34985;DHT22;21190;58.750;17.004;2024-02-21T07:28:49;4.20;99.90
34985;DHT22;21190;58.750;17.004;2024-02-21T07:31:16;4.10;99.90
34985;DHT22;21190;58.750;17.004;2024-02-21T07:33:44;4.10;99.90
34985;DHT22;21190;58.750;17.004;2024-02-21T07:36:11;4.10;99.90
34985;DHT22;21190;58.750;17.004;2024-02-21T07:38:39;4.10;99.90
34985;DHT22;21190;58.750;17.004;2024-02-21T07:41:06;4.10;99.90
34985;DHT22;21190;58.750;17.004;2024-02-21T07:43:33;4.10;99.90
34985;DHT22;21190;58.750;17.004;2024-02-21T07:46:00;4.10;99.90
34985;DHT22;21190;58.750;17.004;2024-02-21T07:48:27;4.10;99.90
34985;DHT22;21190;58.750;17.004;2024-02-21T07:50:58;4.10;99.90
34985;DHT22;21190;58.750;17.004;2024-02-21T07:53:25;4.10;99.90
34985;DHT22;21190;58.750;17.004;2024-02-21T07:55:52;4.10;99.90
34985;DHT22;21190;58.750;17.004;2024-02-21T07:58:19;4.10;99.90
34985;DHT22;21190;58.750;17.004;2024-02-21T08:00:46;4.10;99.90
34985;DHT22;21190;58.750;17.004;2024-02-21T08:03:13;4.20;99.90
34985;DHT22;21190;58.750;17.004;2024-02-21T08:05:42;4.20;99.90
34985;DHT22;21190;58.750;17.004;2024-02-21T08:08:09;4.20;99.90
34985;DHT22;21190;58.750;17.004;2024-02-21T08:10:37;4.20;99.90
34985;DHT22;21190;58.750;17.004;2024-02-21T08:13:06;4.20;99.90
34985;DHT22;21190;58.750;17.004;2024-02-21T08:15:33;4.20;99.90
34985;DHT22;21190;58.750;17.004;2024-02-21T08:18:00;4.20;99.90
34985;DHT22;21190;58.750;17.004;2024-02-21T08:20:28;4.20;99.90
34985;DHT22;21190;58.750;17.004;2024-02-21T08:22:55;4.20;99.90
34985;DHT22;21190;58.750;17.004;2024-02-21T08:25:22;4.20;99.90
34985;DHT22;21190;58.750;17.004;2024-02-21T08:27:49;4.10;99.90
34985;DHT22;21190;58.750;17.004;2024-02-21T08:30:18;4.10;99.90
34985;DHT22;21190;58.750;17.004;2024-02-21T08:32:45;4.10;99.90
34985;DHT22;21190;58.750;17.004;2024-02-21T08:35:13;4.20;99.90
34985;DHT22;21190;58.750;17.004;2024-02-21T08:37:40;4.10;99.90
34985;DHT22;21190;58.750;17.004;2024-02-21T08:40:07;4.20;99.90
34985;DHT22;21190;58.750;17.004;2024-02-21T08:42:38;4.20;99.90
34985;DHT22;21190;58.750;17.004;2024-02-21T08:45:06;4.20;99.90
34985;DHT22;21190;58.750;17.004;2024-02-21T08:47:33;4.10;99.90
34985;DHT22;21190;58.750;17.004;2024-02-21T08:50:00;4.20;99.90
34985;DHT22;21190;58.750;17.004;2024-02-21T08:52:40;4.20;99.90
34985;DHT22;21190;58.750;17.004;2024-02-21T08:55:08;4.20;99.90
34985;DHT22;21190;58.750;17.004;2024-02-21T08:57:36;4.20;99.90
34985;DHT22;21190;58.750;17.004;2024-02-21T09:00:04;4.20;99.90
34985;DHT22;21190;58.750;17.004;2024-02-21T09:02:41;4.20;99.90
34985;DHT22;21190;58.750;17.004;2024-02-21T09:05:11;4.30;99.90
34985;DHT22;21190;58.750;17.004;2024-02-21T09:07:39;4.30;99.90
34985;DHT22;21190;58.750;17.004;2024-02-21T09:10:06;4.30;99.90
34985;DHT22;21190;58.750;17.004;2024-02-21T09:12:34;4.30;99.90
34985;DHT22;21190;58.750;17.004;2024-02-21T09:15:01;4.30;99.90
34985;DHT22;21190;58.750;17.004;2024-02-21T09:17:28;4.30;99.90
34985;DHT22;21190;58.750;17.004;2024-02-21T09:19:56;4.40;99.90
34985;DHT22;21190;58.750;17.004;2024-02-21T09:22:27;4.40;99.90
34985;DHT22;21190;58.750;17.004;2024-02-21T09:24:54;4.40;99.90
34985;DHT22;21190;58.750;17.004;2024-02-21T09:27:21;4.40;99.90
34985;DHT22;21190;58.750;17.004;2024-02-21T09:29:49;4.40;99.90
34985;DHT22;21190;58.750;17.004;2024-02-21T09:32:17;4.50;99.90
34985;DHT22;21190;58.750;17.004;2024-02-21T09:34:45;4.50;99.90
34985;DHT22;21190;58.750;17.004;2024-02-21T09:37:13;4.60;99.90
34985;DHT22;21190;58.750;17.004;2024-02-21T09:39:40;4.60;99.90
34985;DHT22;21190;58.750;17.004;2024-02-21T09:42:11;4.70;99.90
34985;DHT22;21190;58.750;17.004;2024-02-21T09:44:38;4.80;99.90
34985;DHT22;21190;58.750;17.004;2024-02-21T09:47:34;4.80;99.90
34985;DHT22;21190;58.750;17.004;2024-02-21T09:50:06;4.80;99.90
34985;DHT22;21190;58.750;17.004;2024-02-21T09:52:34;4.90;99.90
34985;DHT22;21190;58.750;17.004;2024-02-21T09:55:03;4.90;99.90
34985;DHT22;21190;58.750;17.004;2024-02-21T09:57:32;5.00;99.90
34985;DHT22;21190;58.750;17.004;2024-02-21T09:59:59;5.00;99.90
34985;DHT22;21190;58.750;17.004;2024-02-21T10:02:27;5.00;99.90
34985;DHT22;21190;58.750;17.004;2024-02-21T10:04:54;5.10;99.90
34985;DHT22;21190;58.750;17.004;2024-02-21T10:07:22;5.10;99.90
34985;DHT22;21190;58.750;17.004;2024-02-21T10:10:00;5.10;99.90
34985;DHT22;21190;58.750;17.004;2024-02-21T10:12:28;5.10;99.90
34985;DHT22;21190;58.750;17.004;2024-02-21T10:15:02;5.10;99.90
34985;DHT22;21190;58.750;17.004;2024-02-21T10:17:29;5.10;99.90
34985;DHT22;21190;58.750;17.004;2024-02-21T10:20:07;5.10;99.90
34985;DHT22;21190;58.750;17.004;2024-02-21T10:22:35;5.00;99.90
34985;DHT22;21190;58.750;17.004;2024-02-21T10:25:10;5.10;99.90
34985;DHT22;21190;58.750;17.004;2024-02-21T10:27:38;5.20;99.90
34985;DHT22;21190;58.750;17.004;2024-02-21T10:30:07;5.20;99.90
34985;DHT22;21190;58.750;17.004;2024-02-21T10:32:53;5.30;99.90
34985;DHT22;21190;58.750;17.004;2024-02-21T10:35:31;5.40;99.90
34985;DHT22;21190;58.750;17.004;2024-02-21T10:37:59;5.40;99.90
34985;DHT22;21190;58.750;17.004;2024-02-21T10:40:28;5.50;99.90
34985;DHT22;21190;58.750;17.004;2024-02-21T10:43:00;5.50;99.90
34985;DHT22;21190;58.750;17.004;2024-02-21T10:45:32;5.50;99.90
34985;DHT22;21190;58.750;17.004;2024-02-21T10:48:14;5.60;99.90
34985;DHT22;21190;58.750;17.004;2024-02-21T10:50:56;5.60;99.90
34985;DHT22;21190;58.750;17.004;2024-02-21T10:56:29;5.60;99.90
34985;DHT22;21190;58.750;17.004;2024-02-21T10:58:58;5.60;99.90
34985;DHT22;21190;58.750;17.004;2024-02-21T11:01:25;5.70;99.90
34985;DHT22;21190;58.750;17.004;2024-02-21T11:03:55;5.70;99.90
34985;DHT22;21190;58.750;17.004;2024-02-21T11:06:25;5.70;99.90
34985;DHT22;21190;58.750;17.004;2024-02-21T11:09:01;5.70;99.90
34985;DHT22;21190;58.750;17.004;2024-02-21T11:11:43;5.60;99.90
34985;DHT22;21190;58.750;17.004;2024-02-21T11:14:17;5.60;99.90
34985;DHT22;21190;58.750;17.004;2024-02-21T11:16:45;5.60;99.90
34985;DHT22;21190;58.750;17.004;2024-02-21T11:21:49;5.60;99.90
34985;DHT22;21190;58.750;17.004;2024-02-21T11:24:30;5.60;99.90
34985;DHT22;21190;58.750;17.004;2024-02-21T11:27:14;5.60;99.90
34985;DHT22;21190;58.750;17.004;2024-02-21T11:29:57;5.60;99.90
34985;DHT22;21190;58.750;17.004;2024-02-21T11:32:25;5.70;99.90
34985;DHT22;21190;58.750;17.004;2024-02-21T11:35:01;5.70;99.90
34985;DHT22;21190;58.750;17.004;2024-02-21T11:37:34;5.70;99.90
34985;DHT22;21190;58.750;17.004;2024-02-21T11:40:01;5.70;99.90
34985;DHT22;21190;58.750;17.004;2024-02-21T11:42:30;5.70;99.90
34985;DHT22;21190;58.750;17.004;2024-02-21T11:44:59;5.70;99.90
34985;DHT22;21190;58.750;17.004;2024-02-21T11:47:28;5.70;99.90
34985;DHT22;21190;58.750;17.004;2024-02-21T11:49:56;5.70;99.90
34985;DHT22;21190;58.750;17.004;2024-02-21T11:52:24;5.70;99.90
34985;DHT22;21190;58.750;17.004;2024-02-21T11:54:53;5.70;99.90
34985;DHT22;21190;58.750;17.004;2024-02-21T11:57:23;5.70;99.90
34985;DHT22;21190;58.750;17.004;2024-02-21T11:59:53;5.70;99.90
34985;DHT22;21190;58.750;17.004;2024-02-21T12:02:26;5.80;99.90
34985;DHT22;21190;58.750;17.004;2024-02-21T12:04:54;5.70;99.90
34985;DHT22;21190;58.750;17.004;2024-02-21T12:07:22;5.70;99.90
34985;DHT22;21190;58.750;17.004;2024-02-21T12:09:51;5.80;99.90
34985;DHT22;21190;58.750;17.004;2024-02-21T12:12:20;5.80;99.90
34985;DHT22;21190;58.750;17.004;2024-02-21T12:14:57;5.80;99.90
34985;DHT22;21190;58.750;17.004;2024-02-21T12:17:27;5.80;99.90
34985;DHT22;21190;58.750;17.004;2024-02-21T12:19:55;5.80;99.90
34985;DHT22;21190;58.750;17.004;2024-02-21T12:22:25;5.80;99.90
34985;DHT22;21190;58.750;17.004;2024-02-21T12:24:52;5.80;99.90
34985;DHT22;21190;58.750;17.004;2024-02-21T12:27:19;5.80;99.90
34985;DHT22;21190;58.750;17.004;2024-02-21T12:29:47;5.80;99.90
34985;DHT22;21190;58.750;17.004;2024-02-21T12:32:14;5.80;99.90
34985;DHT22;21190;58.750;17.004;2024-02-21T12:34:41;5.90;99.90
34985;DHT22;21190;58.750;17.004;2024-02-21T12:37:21;5.90;99.90
34985;DHT22;21190;58.750;17.004;2024-02-21T12:39:48;5.90;99.90
34985;DHT22;21190;58.750;17.004;2024-02-21T12:42:15;5.90;99.90
34985;DHT22;21190;58.750;17.004;2024-02-21T12:44:42;5.90;99.90
34985;DHT22;21190;58.750;17.004;2024-02-21T12:47:10;5.90;99.90
34985;DHT22;21190;58.750;17.004;2024-02-21T12:49:37;5.90;99.90
34985;DHT22;21190;58.750;17.004;2024-02-21T12:52:10;6.00;99.90
34985;DHT22;21190;58.750;17.004;2024-02-21T12:54:38;6.00;99.90
34985;DHT22;21190;58.750;17.004;2024-02-21T12:57:05;6.00;99.90
34985;DHT22;21190;58.750;17.004;2024-02-21T12:59:32;6.00;99.90
34985;DHT22;21190;58.750;17.004;2024-02-21T13:02:00;6.00;99.90
34985;DHT22;21190;58.750;17.004;2024-02-21T13:04:27;6.00;99.90
34985;DHT22;21190;58.750;17.004;2024-02-21T13:06:55;6.00;99.90
34985;DHT22;21190;58.750;17.004;2024-02-21T13:09:25;6.00;99.90
34985;DHT22;21190;58.750;17.004;2024-02-21T13:11:52;6.10;99.90
34985;DHT22;21190;58.750;17.004;2024-02-21T13:14:20;6.10;99.90
34985;DHT22;21190;58.750;17.004;2024-02-21T13:16:47;6.10;99.90
34985;DHT22;21190;58.750;17.004;2024-02-21T13:19:15;6.10;99.90
34985;DHT22;21190;58.750;17.004;2024-02-21T13:21:45;6.10;99.90
34985;DHT22;21190;58.750;17.004;2024-02-21T13:24:13;6.10;99.90
34985;DHT22;21190;58.750;17.004;2024-02-21T13:26:40;6.20;99.90
34985;DHT22;21190;58.750;17.004;2024-02-21T13:29:07;6.10;99.90
34985;DHT22;21190;58.750;17.004;2024-02-21T13:31:34;6.20;99.90
34985;DHT22;21190;58.750;17.004;2024-02-21T13:34:01;6.10;99.90
34985;DHT22;21190;58.750;17.004;2024-02-21T13:36:30;6.10;99.90
34985;DHT22;21190;58.750;17.004;2024-02-21T13:38:57;6.10;99.90
34985;DHT22;21190;58.750;17.004;2024-02-21T13:41:24;6.10;99.90
34985;DHT22;21190;58.750;17.004;2024-02-21T13:43:51;6.10;99.90
34985;DHT22;21190;58.750;17.004;2024-02-21T13:46:18;6.10;99.90
34985;DHT22;21190;58.750;17.004;2024-02-21T13:48:46;6.10;99.90
34985;DHT22;21190;58.750;17.004;2024-02-21T13:51:14;6.20;99.90
34985;DHT22;21190;58.750;17.004;2024-02-21T13:53:43;6.10;99.90
34985;DHT22;21190;58.750;17.004;2024-02-21T13:56:10;6.20;99.90
34985;DHT22;21190;58.750;17.004;2024-02-21T13:58:38;6.20;99.90
34985;DHT22;21190;58.750;17.004;2024-02-21T14:01:05;6.20;99.90
34985;DHT22;21190;58.750;17.004;2024-02-21T14:03:32;6.20;99.90
34985;DHT22;21190;58.750;17.004;2024-02-21T14:05:59;6.10;99.90
34985;DHT22;21190;58.750;17.004;2024-02-21T14:08:27;6.20;99.90
34985;DHT22;21190;58.750;17.004;2024-02-21T14:10:54;6.10;99.90
34985;DHT22;21190;58.750;17.004;2024-02-21T14:13:22;6.10;99.90
34985;DHT22;21190;58.750;17.004;2024-02-21T14:15:50;6.20;99.90
34985;DHT22;21190;58.750;17.004;2024-02-21T14:18:17;6.20;99.90
34985;DHT22;21190;58.750;17.004;2024-02-21T14:20:44;6.20;99.90
34985;DHT22;21190;58.750;17.004;2024-02-21T14:23:11;6.20;99.90
34985;DHT22;21190;58.750;17.004;2024-02-21T14:25:40;6.30;99.90
34985;DHT22;21190;58.750;17.004;2024-02-21T14:28:08;6.20;99.90
34985;DHT22;21190;58.750;17.004;2024-02-21T14:30:38;6.30;99.90
34985;DHT22;21190;58.750;17.004;2024-02-21T14:33:05;6.30;99.90
34985;DHT22;21190;58.750;17.004;2024-02-21T14:35:35;6.30;99.90
34985;DHT22;21190;58.750;17.004;2024-02-21T14:38:02;6.30;99.90
34985;DHT22;21190;58.750;17.004;2024-02-21T14:40:29;6.30;99.90
34985;DHT22;21190;58.750;17.004;2024-02-21T14:42:57;6.20;99.90
34985;DHT22;21190;58.750;17.004;2024-02-21T14:45:24;6.20;99.90
34985;DHT22;21190;58.750;17.004;2024-02-21T14:47:51;6.20;99.90
34985;DHT22;21190;58.750;17.004;2024-02-21T14:50:18;6.20;99.90
34985;DHT22;21190;58.750;17.004;2024-02-21T14:52:46;6.20;99.90
34985;DHT22;21190;58.750;17.004;2024-02-21T14:55:14;6.30;99.90
34985;DHT22;21190;58.750;17.004;2024-02-21T14:57:41;6.20;99.90
34985;DHT22;21190;58.750;17.004;2024-02-21T15:00:10;6.10;99.90
34985;DHT22;21190;58.750;17.004;2024-02-21T15:02:38;6.10;99.90
34985;DHT22;21190;58.750;17.004;2024-02-21T15:05:06;6.00;99.90
34985;DHT22;21190;58.750;17.004;2024-02-21T15:07:33;5.90;99.90
34985;DHT22;21190;58.750;17.004;2024-02-21T15:10:01;5.90;99.90
34985;DHT22;21190;58.750;17.004;2024-02-21T15:12:29;5.90;99.90
34985;DHT22;21190;58.750;17.004;2024-02-21T15:14:58;5.90;99.90
34985;DHT22;21190;58.750;17.004;2024-02-21T15:17:26;5.80;99.90
34985;DHT22;21190;58.750;17.004;2024-02-21T15:19:53;5.70;99.90
34985;DHT22;21190;58.750;17.004;2024-02-21T15:22:22;5.70;99.90
34985;DHT22;21190;58.750;17.004;2024-02-21T15:24:50;5.80;99.90
34985;DHT22;21190;58.750;17.004;2024-02-21T15:27:18;5.70;99.90
34985;DHT22;21190;58.750;17.004;2024-02-21T15:29:45;5.70;99.90
34985;DHT22;21190;58.750;17.004;2024-02-21T15:32:12;5.70;99.90
34985;DHT22;21190;58.750;17.004;2024-02-21T15:34:39;5.60;99.90
34985;DHT22;21190;58.750;17.004;2024-02-21T15:37:07;5.60;99.90
34985;DHT22;21190;58.750;17.004;2024-02-21T15:39:34;5.50;99.90
34985;DHT22;21190;58.750;17.004;2024-02-21T15:42:01;5.50;99.90